Time;durP1;ratioP1;P1;durP2;ratioP2;P2;SDS_P1;SDS_P2;PMS_P1;PMS_P2;Temp;Humidity;BMP_temperature;BMP_pressure;BME280_temperature;BME280_humidity;BME280_pressure;Samples;Min_cycle;Max_cycle;Signal;HPM_P1;HPM_P2
2022/04/18 00:00:28;;;;;;;7.97;5.20;;;;;;;;;;5018313;28;20209;-39
2022/04/18 00:03:06;;;;;;;12.53;5.60;;;;;;;;;;5018307;28;20208;-40
2022/04/18 00:05:33;;;;;;;10.13;5.73;;;;;;;;;;5018079;28;20232;-39
2022/04/18 00:08:02;;;;;;;11.37;5.50;;;;;;;;;;5018254;28;20209;-39
2022/04/18 00:10:29;;;;;;;11.27;6.27;;;;;;;;;;5018267;28;20237;-39
2022/04/18 00:12:57;;;;;;;8.37;5.10;;;;;;;;;;5018112;28;20225;-39
2022/04/18 00:15:25;;;;;;;9.80;5.20;;;;;;;;;;5018115;28;20633;-39
2022/04/18 00:17:52;;;;;;;7.27;4.87;;;;;;;;;;5017806;28;20212;-39
2022/04/18 00:20:20;;;;;;;9.17;5.87;;;;;;;;;;5018159;28;20569;-39
2022/04/18 00:22:47;;;;;;;9.40;5.33;;;;;;;;;;5017988;28;20302;-39
2022/04/18 00:25:14;;;;;;;13.53;5.37;;;;;;;;;;5017885;28;20208;-39
2022/04/18 00:27:41;;;;;;;8.93;5.07;;;;;;;;;;5017864;28;20667;-39
2022/04/18 00:30:08;;;;;;;8.87;5.20;;;;;;;;;;5017300;28;20205;-39
2022/04/18 00:32:35;;;;;;;8.10;4.83;;;;;;;;;;5018395;28;20283;-41
2022/04/18 00:35:06;;;;;;;7.77;4.90;;;;;;;;;;5018296;28;20271;-40
2022/04/18 00:37:36;;;;;;;8.30;4.93;;;;;;;;;;5017570;28;20209;-40
2022/04/18 00:40:04;;;;;;;9.40;4.97;;;;;;;;;;5018001;28;20197;-41
2022/04/18 00:42:31;;;;;;;11.77;5.20;;;;;;;;;;5017370;28;20225;-39
2022/04/18 00:44:58;;;;;;;10.40;5.50;;;;;;;;;;5017208;28;20611;-40
2022/04/18 00:47:25;;;;;;;9.90;5.43;;;;;;;;;;5015788;28;20205;-39
2022/04/18 00:49:52;;;;;;;9.33;5.80;;;;;;;;;;5015753;28;20695;-40
2022/04/18 00:52:24;;;;;;;11.70;5.70;;;;;;;;;;4999771;28;20213;-40
2022/04/18 00:54:54;;;;;;;7.97;5.07;;;;;;;;;;4999826;28;20212;-40
2022/04/18 00:57:23;;;;;;;10.03;5.40;;;;;;;;;;5015796;28;20288;-39
2022/04/18 00:59:51;;;;;;;10.13;5.30;;;;;;;;;;5015435;28;20201;-39
2022/04/18 01:02:18;;;;;;;8.20;5.10;;;;;;;;;;4999127;28;20533;-39
2022/04/18 01:04:45;;;;;;;9.67;5.37;;;;;;;;;;5015341;28;20205;-39
2022/04/18 01:07:12;;;;;;;9.07;5.33;;;;;;;;;;5015577;28;20205;-40
2022/04/18 01:09:40;;;;;;;9.90;5.73;;;;;;;;;;5015106;28;20241;-40
2022/04/18 01:12:07;;;;;;;9.13;5.40;;;;;;;;;;5015431;28;20640;-39
2022/04/18 01:15:05;;;;;;;15.60;7.43;;;;;;;;;;5010875;28;20213;-40
2022/04/18 01:17:58;;;;;;;14.33;7.20;;;;;;;;;;5008495;28;20228;-39
2022/04/18 01:20:44;;;;;;;11.30;5.50;;;;;;;;;;5016886;28;20209;-39
2022/04/18 01:23:43;;;;;;;10.30;5.10;;;;;;;;;;5053777;28;20208;-41
2022/04/18 01:29:32;;;;;;;10.93;5.80;;;;;;;;;;4976362;28;20242;-40
2022/04/18 01:31:59;;;;;;;9.67;5.50;;;;;;;;;;4960040;28;20257;-39
2022/04/18 01:34:26;;;;;;;9.53;5.50;;;;;;;;;;4975889;28;20241;-39
2022/04/18 01:36:53;;;;;;;9.83;5.53;;;;;;;;;;4975733;28;20676;-40
2022/04/18 01:39:21;;;;;;;10.50;5.93;;;;;;;;;;4975689;28;20225;-39
2022/04/18 01:41:48;;;;;;;8.70;5.20;;;;;;;;;;4975749;28;20213;-39
2022/04/18 01:44:16;;;;;;;10.67;6.07;;;;;;;;;;4975253;28;20666;-40
2022/04/18 01:46:43;;;;;;;10.00;5.80;;;;;;;;;;4959499;28;20650;-40
2022/04/18 01:49:11;;;;;;;9.83;6.00;;;;;;;;;;4975499;28;20221;-39
2022/04/18 01:51:38;;;;;;;11.07;6.10;;;;;;;;;;4975693;28;20286;-39
2022/04/18 01:54:08;;;;;;;13.10;6.03;;;;;;;;;;4959779;28;20230;-39
2022/04/18 01:56:35;;;;;;;11.57;6.37;;;;;;;;;;4975797;28;20206;-39
2022/04/18 01:59:03;;;;;;;11.70;6.17;;;;;;;;;;4960741;28;20518;-40
2022/04/18 02:01:31;;;;;;;9.53;5.90;;;;;;;;;;4980443;28;20214;-39
2022/04/18 02:03:59;;;;;;;10.93;6.17;;;;;;;;;;4995617;28;20217;-39
2022/04/18 02:06:26;;;;;;;11.97;6.13;;;;;;;;;;4994840;28;20208;-39
2022/04/18 02:08:53;;;;;;;13.23;6.63;;;;;;;;;;4995175;28;20288;-39
2022/04/18 02:11:23;;;;;;;14.90;7.57;;;;;;;;;;4995268;28;20190;-40
2022/04/18 02:13:52;;;;;;;14.53;6.53;;;;;;;;;;4994954;28;20289;-41
2022/04/18 02:16:20;;;;;;;12.07;6.50;;;;;;;;;;4995328;28;20307;-40
2022/04/18 02:18:51;;;;;;;10.17;6.07;;;;;;;;;;5011682;28;20543;-39
2022/04/18 02:21:19;;;;;;;13.57;5.93;;;;;;;;;;5011669;28;20226;-40
2022/04/18 02:23:46;;;;;;;13.30;6.70;;;;;;;;;;4995383;28;20202;-39
2022/04/18 02:26:14;;;;;;;13.30;6.43;;;;;;;;;;4995550;28;20197;-39
2022/04/18 02:28:44;;;;;;;11.77;6.50;;;;;;;;;;4995081;28;20637;-40
2022/04/18 02:31:13;;;;;;;13.67;7.07;;;;;;;;;;5011233;28;20229;-40
2022/04/18 02:33:40;;;;;;;13.03;6.27;;;;;;;;;;4995688;28;20230;-39
2022/04/18 02:36:07;;;;;;;10.87;6.30;;;;;;;;;;4994804;28;20601;-39
2022/04/18 02:38:35;;;;;;;10.73;6.27;;;;;;;;;;5011389;28;20280;-39
2022/04/18 02:41:02;;;;;;;10.37;5.73;;;;;;;;;;5011055;28;20209;-39
2022/04/18 02:43:29;;;;;;;11.10;5.80;;;;;;;;;;4994740;28;20202;-39
2022/04/18 02:46:03;;;;;;;11.83;6.70;;;;;;;;;;4995885;28;20202;-39
2022/04/18 02:48:53;;;;;;;10.80;6.70;;;;;;;;;;4995658;28;20289;-39
2022/04/18 02:51:27;;;;;;;13.80;7.03;;;;;;;;;;5010972;28;20629;-39
2022/04/18 02:54:00;;;;;;;13.00;6.50;;;;;;;;;;4994512;28;20259;-40
2022/04/18 02:56:31;;;;;;;12.10;6.57;;;;;;;;;;4994731;28;20214;-39
2022/04/18 02:58:58;;;;;;;11.07;6.50;;;;;;;;;;4994544;28;20647;-39
2022/04/18 03:01:25;;;;;;;12.20;6.43;;;;;;;;;;4994454;28;20206;-39
2022/04/18 03:03:55;;;;;;;11.77;6.87;;;;;;;;;;4994601;28;20216;-39
2022/04/18 03:06:22;;;;;;;9.90;6.60;;;;;;;;;;5010431;28;20206;-39
2022/04/18 03:08:50;;;;;;;13.13;7.13;;;;;;;;;;4994276;28;20221;-39
2022/04/18 03:11:17;;;;;;;13.63;6.57;;;;;;;;;;4994201;28;20645;-40
2022/04/18 03:13:46;;;;;;;12.70;6.47;;;;;;;;;;4994428;28;20222;-41
2022/04/18 03:16:31;;;;;;;9.97;6.27;;;;;;;;;;4994129;28;20265;-39
2022/04/18 03:18:58;;;;;;;9.97;6.33;;;;;;;;;;5013060;28;20205;-39
2022/04/18 03:21:26;;;;;;;9.57;6.13;;;;;;;;;;4998320;28;20209;-39
2022/04/18 03:23:56;;;;;;;17.27;6.17;;;;;;;;;;4998301;28;20572;-39
2022/04/18 03:26:33;;;;;;;12.17;6.87;;;;;;;;;;4998971;28;20260;-40
2022/04/18 03:29:04;;;;;;;13.47;7.00;;;;;;;;;;5014321;28;20264;-39
2022/04/18 03:31:31;;;;;;;10.37;6.93;;;;;;;;;;4997909;28;20549;-38
2022/04/18 03:34:00;;;;;;;13.00;6.63;;;;;;;;;;4998309;28;20284;-40
2022/04/18 03:42:00;;;;;;;13.67;7.20;;;;;;;;;;4999139;28;20194;-39
2022/04/18 03:44:28;;;;;;;12.67;7.10;;;;;;;;;;4997738;28;20308;-39
2022/04/18 03:46:55;;;;;;;13.20;7.13;;;;;;;;;;4998763;28;20206;-39
2022/04/18 03:49:22;;;;;;;13.00;6.23;;;;;;;;;;4997794;28;20206;-40
2022/04/18 03:51:52;;;;;;;10.13;5.87;;;;;;;;;;4997604;28;20625;-39
2022/04/18 03:54:19;;;;;;;9.47;5.70;;;;;;;;;;4998267;28;20668;-39
2022/04/18 03:56:46;;;;;;;12.63;6.13;;;;;;;;;;4998169;28;20283;-41
2022/04/18 03:59:16;;;;;;;8.00;5.27;;;;;;;;;;4999363;28;20221;-39
2022/04/18 04:02:04;;;;;;;8.33;4.90;;;;;;;;;;4998200;28;20210;-40
2022/04/18 04:04:36;;;;;;;9.27;5.23;;;;;;;;;;4998488;28;20633;-40
2022/04/18 04:07:04;;;;;;;9.03;5.23;;;;;;;;;;4997856;28;20212;-39
2022/04/18 04:09:34;;;;;;;10.73;5.57;;;;;;;;;;4998574;28;20230;-39
2022/04/18 04:12:05;;;;;;;7.80;5.13;;;;;;;;;;4997946;28;20210;-40
2022/04/18 04:14:42;;;;;;;7.87;4.87;;;;;;;;;;5013833;28;20229;-39
2022/04/18 04:17:09;;;;;;;7.63;4.57;;;;;;;;;;5013761;28;20531;-39
2022/04/18 04:19:38;;;;;;;6.70;4.37;;;;;;;;;;4997605;28;20214;-39
2022/04/18 04:22:16;;;;;;;6.83;4.03;;;;;;;;;;4998535;28;20206;-40
2022/04/18 04:24:47;;;;;;;8.13;4.13;;;;;;;;;;5015540;28;20633;-40
2022/04/18 04:27:14;;;;;;;6.80;3.50;;;;;;;;;;5017976;28;20212;-40
2022/04/18 04:29:41;;;;;;;4.70;3.00;;;;;;;;;;5016603;28;20216;-39
2022/04/18 04:32:19;;;;;;;5.67;3.27;;;;;;;;;;5017364;28;20213;-39
2022/04/18 04:34:46;;;;;;;4.33;2.93;;;;;;;;;;5016867;28;20241;-39
2022/04/18 04:37:36;;;;;;;5.07;3.10;;;;;;;;;;5022743;28;20202;-40
2022/04/18 04:40:26;;;;;;;4.23;2.90;;;;;;;;;;5016847;28;20205;-40
2022/04/18 04:42:53;;;;;;;5.63;3.00;;;;;;;;;;5016659;28;20201;-40
2022/04/18 04:45:21;;;;;;;5.60;3.53;;;;;;;;;;5016534;28;20691;-39
2022/04/18 04:48:14;;;;;;;4.67;2.97;;;;;;;;;;5035427;28;20274;-39
2022/04/18 04:50:48;;;;;;;4.50;2.93;;;;;;;;;;5035480;28;20195;-39
2022/04/18 04:53:16;;;;;;;4.57;2.70;;;;;;;;;;5035417;28;20201;-39
2022/04/18 04:55:44;;;;;;;4.47;2.60;;;;;;;;;;5035451;28;20259;-39
2022/04/18 04:58:12;;;;;;;4.57;2.60;;;;;;;;;;5035205;28;20211;-41
2022/04/18 05:00:40;;;;;;;5.53;3.70;;;;;;;;;;5035243;28;20212;-41
2022/04/18 05:03:27;;;;;;;5.13;3.10;;;;;;;;;;5035958;28;20200;-40
2022/04/18 05:05:55;;;;;;;4.20;2.67;;;;;;;;;;5035081;28;20200;-42
2022/04/18 05:08:35;;;;;;;5.30;2.73;;;;;;;;;;5027882;28;20251;-42
2022/04/18 05:11:04;;;;;;;4.23;2.73;;;;;;;;;;5034048;28;20227;-42
2022/04/18 05:13:45;;;;;;;5.20;2.87;;;;;;;;;;5016915;28;20371;-42
2022/04/18 05:16:15;;;;;;;6.93;3.03;;;;;;;;;;5034379;28;20220;-42
2022/04/18 05:18:55;;;;;;;3.30;2.50;;;;;;;;;;5017565;28;20611;-41
2022/04/18 05:21:23;;;;;;;4.87;2.70;;;;;;;;;;5033777;28;20233;-43
2022/04/18 05:23:54;;;;;;;3.57;2.77;;;;;;;;;;5003799;28;20287;-42
2022/04/18 05:26:21;;;;;;;3.33;2.53;;;;;;;;;;4995445;28;20225;-40
2022/04/18 05:28:48;;;;;;;6.30;2.70;;;;;;;;;;4995302;28;20230;-40
2022/04/18 05:31:19;;;;;;;6.07;2.60;;;;;;;;;;5011874;28;20230;-39
2022/04/18 05:33:50;;;;;;;4.13;2.60;;;;;;;;;;5011325;28;20571;-39
2022/04/18 05:36:35;;;;;;;3.20;2.30;;;;;;;;;;4996064;28;20400;-38
2022/04/18 05:39:06;;;;;;;3.17;2.33;;;;;;;;;;5017960;28;20683;-40
2022/04/18 05:41:51;;;;;;;3.40;2.30;;;;;;;;;;5010443;28;20305;-44
2022/04/18 05:44:22;;;;;;;3.63;2.70;;;;;;;;;;5021926;28;20226;-44
2022/04/18 05:46:57;;;;;;;3.15;2.72;;;;;;;;;;5019095;28;20570;-40
2022/04/18 05:49:27;;;;;;;5.13;2.70;;;;;;;;;;5012943;28;20656;-42
2022/04/18 05:51:56;;;;;;;4.82;2.35;;;;;;;;;;5014137;28;20221;-40
2022/04/18 05:54:23;;;;;;;4.40;1.98;;;;;;;;;;5030680;28;20244;-45
2022/04/18 05:56:55;;;;;;;3.67;2.00;;;;;;;;;;5034260;28;20668;-40
2022/04/18 05:59:35;;;;;;;3.15;1.92;;;;;;;;;;5050626;28;20225;-39
2022/04/18 06:02:08;;;;;;;4.93;1.90;;;;;;;;;;5018023;28;20232;-40
2022/04/18 06:04:36;;;;;;;3.10;1.92;;;;;;;;;;5013867;28;20295;-40
2022/04/18 06:07:22;;;;;;;2.72;1.70;;;;;;;;;;5014786;28;20236;-44
2022/04/18 06:10:09;;;;;;;2.72;2.00;;;;;;;;;;5014896;28;20241;-40
2022/04/18 06:12:36;;;;;;;4.20;2.40;;;;;;;;;;5012267;28;20291;-40
2022/04/18 06:15:05;;;;;;;4.03;2.55;;;;;;;;;;5012277;28;20221;-42
2022/04/18 06:17:32;;;;;;;4.32;2.67;;;;;;;;;;5008632;28;20218;-42
2022/04/18 06:20:03;;;;;;;5.10;2.80;;;;;;;;;;4997278;28;20222;-41
2022/04/18 06:22:30;;;;;;;4.22;2.47;;;;;;;;;;4995916;28;20230;-41
2022/04/18 06:24:58;;;;;;;4.40;2.47;;;;;;;;;;5033732;28;20220;-40
2022/04/18 06:27:28;;;;;;;3.65;2.45;;;;;;;;;;5024885;28;20619;-42
2022/04/18 06:29:56;;;;;;;4.13;2.22;;;;;;;;;;5020534;28;20241;-40
2022/04/18 06:32:24;;;;;;;3.97;2.50;;;;;;;;;;5012406;28;20248;-47
2022/04/18 06:34:54;;;;;;;3.58;2.30;;;;;;;;;;5008299;28;20264;-44
2022/04/18 06:37:26;;;;;;;2.20;2.00;;;;;;;;;;5014066;28;20681;-42
2022/04/18 06:39:56;;;;;;;3.00;2.10;;;;;;;;;;5012159;28;20218;-55
2022/04/18 06:42:34;;;;;;;3.33;2.30;;;;;;;;;;5022806;28;20236;-43
2022/04/18 06:45:03;;;;;;;3.27;1.70;;;;;;;;;;5004931;28;20233;-48
2022/04/18 06:47:32;;;;;;;4.10;1.90;;;;;;;;;;5009453;28;20225;-42
2022/04/18 06:50:00;;;;;;;3.13;2.10;;;;;;;;;;5010179;28;20213;-42
2022/04/18 06:52:37;;;;;;;4.33;1.83;;;;;;;;;;5011474;28;20229;-46
2022/04/18 06:55:24;;;;;;;3.50;2.17;;;;;;;;;;5027177;28;20240;-43
2022/04/18 06:57:52;;;;;;;3.20;1.90;;;;;;;;;;5009237;28;20222;-45
2022/04/18 07:00:20;;;;;;;2.47;1.60;;;;;;;;;;5028188;28;20268;-42
2022/04/18 07:02:47;;;;;;;3.80;2.40;;;;;;;;;;5011153;28;20217;-41
2022/04/18 07:05:14;;;;;;;3.47;1.77;;;;;;;;;;5009312;28;20228;-43
2022/04/18 07:07:42;;;;;;;3.23;1.80;;;;;;;;;;5012361;28;20738;-42
2022/04/18 07:10:10;;;;;;;3.63;2.07;;;;;;;;;;5008657;28;20240;-44
2022/04/18 07:12:38;;;;;;;4.07;1.80;;;;;;;;;;5013487;28;20229;-42
2022/04/18 07:15:06;;;;;;;2.40;1.73;;;;;;;;;;5029514;28;20244;-43
2022/04/18 07:17:35;;;;;;;2.47;1.40;;;;;;;;;;5013119;28;20567;-43
2022/04/18 07:20:07;;;;;;;6.10;1.37;;;;;;;;;;5013250;28;20233;-42
2022/04/18 07:22:39;;;;;;;2.73;1.43;;;;;;;;;;5013114;28;20217;-43
2022/04/18 07:25:09;;;;;;;1.97;1.23;;;;;;;;;;5006054;28;20664;-42
2022/04/18 07:27:39;;;;;;;1.90;1.33;;;;;;;;;;5012100;28;20311;-42
2022/04/18 07:30:08;;;;;;;1.93;1.00;;;;;;;;;;5011796;28;20236;-46
2022/04/18 07:32:39;;;;;;;2.20;1.10;;;;;;;;;;5024573;28;20229;-45
2022/04/18 07:35:10;;;;;;;1.50;1.23;;;;;;;;;;5012126;28;20237;-44
2022/04/18 07:40:36;;;;;;;1.70;1.23;;;;;;;;;;5012503;28;20240;-42
2022/04/18 07:43:10;;;;;;;2.53;1.30;;;;;;;;;;4994549;28;20262;-43
2022/04/18 07:45:40;;;;;;;4.10;2.07;;;;;;;;;;5012304;28;20217;-43
2022/04/18 07:48:08;;;;;;;1.37;1.10;;;;;;;;;;5009848;28;20260;-42
2022/04/18 07:53:28;;;;;;;2.17;1.00;;;;;;;;;;5014274;28;20224;-43
2022/04/18 07:55:56;;;;;;;1.60;1.10;;;;;;;;;;5011973;28;20237;-43
2022/04/18 07:58:24;;;;;;;1.87;0.97;;;;;;;;;;5027712;28;20213;-43
2022/04/18 08:00:52;;;;;;;2.80;1.23;;;;;;;;;;5011312;28;20276;-47
2022/04/18 08:03:20;;;;;;;1.47;1.00;;;;;;;;;;5000901;28;20213;-42
2022/04/18 08:05:51;;;;;;;2.37;1.10;;;;;;;;;;4996249;28;20636;-42
2022/04/18 08:08:24;;;;;;;0.50;0.50;;;;;;;;;;4996508;28;20687;-43
2022/04/18 08:10:51;;;;;;;1.17;1.07;;;;;;;;;;4996705;28;20331;-42
2022/04/18 08:13:19;;;;;;;2.50;0.80;;;;;;;;;;4996732;28;20236;-42
2022/04/18 08:16:11;;;;;;;1.47;1.00;;;;;;;;;;4997733;28;20253;-44
2022/04/18 08:18:45;;;;;;;2.77;0.87;;;;;;;;;;4996572;28;20236;-43
2022/04/18 08:21:19;;;;;;;1.00;0.73;;;;;;;;;;5009000;28;20228;-43
2022/04/18 08:23:48;;;;;;;4.23;1.37;;;;;;;;;;5030239;28;20230;-44
2022/04/18 08:26:40;;;;;;;4.30;1.30;;;;;;;;;;5028852;28;20636;-44
2022/04/18 08:29:25;;;;;;;1.30;0.80;;;;;;;;;;4995769;28;20222;-43
2022/04/18 08:32:12;;;;;;;1.40;1.00;;;;;;;;;;5005554;28;20232;-43
2022/04/18 08:34:40;;;;;;;1.40;1.03;;;;;;;;;;5014445;28;20304;-46
2022/04/18 08:37:11;;;;;;;3.57;1.17;;;;;;;;;;5014358;28;20217;-44
2022/04/18 08:40:11;;;;;;;1.27;0.80;;;;;;;;;;5020901;28;20225;-44
2022/04/18 08:42:40;;;;;;;1.40;0.93;;;;;;;;;;5015049;28;20316;-44
2022/04/18 08:45:10;;;;;;;1.65;1.10;;;;;;;;;;5032042;28;20225;-45
2022/04/18 08:53:48;;;;;;;3.83;1.20;;;;;;;;;;3118389;23;20303;-42
2022/04/18 08:56:16;;;;;;;2.53;1.20;;;;;;;;;;5085749;28;21564;-42
2022/04/18 08:58:43;;;;;;;1.20;1.10;;;;;;;;;;5085872;28;20239;-43
2022/04/18 09:01:16;;;;;;;2.30;1.23;;;;;;;;;;5082913;28;20227;-42
2022/04/18 09:04:01;;;;;;;3.10;1.20;;;;;;;;;;5109999;27;20223;-45
2022/04/18 09:06:38;;;;;;;4.13;1.30;;;;;;;;;;5082918;28;20329;-43
2022/04/18 09:09:14;;;;;;;1.48;0.93;;;;;;;;;;5091658;28;20230;-45
2022/04/18 09:11:45;;;;;;;2.50;1.10;;;;;;;;;;5083941;28;20222;-45
2022/04/18 09:14:17;;;;;;;2.67;1.23;;;;;;;;;;5108409;27;20791;-43
2022/04/18 09:16:48;;;;;;;1.53;1.00;;;;;;;;;;5086255;28;20230;-44
2022/04/18 09:19:47;;;;;;;2.10;1.00;;;;;;;;;;5052566;28;20234;-46
2022/04/18 09:22:23;;;;;;;2.53;1.20;;;;;;;;;;5064422;28;20219;-46
2022/04/18 09:24:54;;;;;;;1.58;1.20;;;;;;;;;;5084309;28;20272;-43
2022/04/18 09:27:27;;;;;;;1.90;1.33;;;;;;;;;;5083778;28;20591;-47
2022/04/18 09:30:05;;;;;;;1.23;0.90;;;;;;;;;;5093585;28;20639;-43
2022/04/18 09:32:36;;;;;;;3.00;1.10;;;;;;;;;;5093398;28;20230;-45
2022/04/18 09:35:28;;;;;;;2.47;0.95;;;;;;;;;;5066684;28;20293;-43
2022/04/18 09:38:08;;;;;;;2.05;1.15;;;;;;;;;;5075447;28;20215;-43
2022/04/18 09:40:54;;;;;;;3.33;1.30;;;;;;;;;;5081328;28;20222;-42
2022/04/18 09:43:49;;;;;;;2.43;1.23;;;;;;;;;;5079524;28;20276;-44
2022/04/18 09:46:25;;;;;;;1.70;1.20;;;;;;;;;;5079994;28;20606;-43
2022/04/18 09:49:03;;;;;;;1.23;1.10;;;;;;;;;;5079448;28;20219;-42
2022/04/18 09:51:37;;;;;;;1.98;1.08;;;;;;;;;;5080042;28;20563;-42
2022/04/18 09:54:17;;;;;;;5.78;1.33;;;;;;;;;;5076087;28;20231;-42
2022/04/18 09:56:49;;;;;;;5.57;1.10;;;;;;;;;;5075966;28;20235;-44
2022/04/18 09:59:19;;;;;;;2.78;1.20;;;;;;;;;;5093393;28;20282;-44
2022/04/18 10:01:46;;;;;;;2.53;1.20;;;;;;;;;;5092877;28;20226;-45
2022/04/18 10:04:14;;;;;;;1.58;1.00;;;;;;;;;;5093760;28;20234;-43
2022/04/18 10:06:44;;;;;;;2.50;1.20;;;;;;;;;;5093049;28;20234;-43
2022/04/18 10:09:12;;;;;;;3.47;1.33;;;;;;;;;;5093115;28;20218;-42
2022/04/18 10:11:40;;;;;;;5.07;1.15;;;;;;;;;;5093422;28;20215;-42
2022/04/18 10:14:07;;;;;;;1.95;1.13;;;;;;;;;;5093511;28;20288;-43
2022/04/18 10:16:34;;;;;;;3.07;1.57;;;;;;;;;;5094252;28;20722;-42
2022/04/18 10:19:19;;;;;;;3.83;1.40;;;;;;;;;;5094541;28;20237;-42
2022/04/18 10:21:54;;;;;;;2.73;1.33;;;;;;;;;;5093284;28;20234;-42
2022/04/18 10:24:45;;;;;;;2.40;1.20;;;;;;;;;;5093673;28;20224;-42
2022/04/18 10:27:34;;;;;;;2.17;1.23;;;;;;;;;;5093263;28;20227;-41
2022/04/18 10:30:02;;;;;;;1.40;1.17;;;;;;;;;;5093839;28;20227;-42
2022/04/18 10:32:31;;;;;;;1.97;1.10;;;;;;;;;;5092797;28;20257;-45
2022/04/18 10:35:00;;;;;;;2.73;1.17;;;;;;;;;;5083474;28;20756;-42
2022/04/18 10:37:29;;;;;;;2.17;1.20;;;;;;;;;;5092709;28;20219;-45
2022/04/18 10:40:06;;;;;;;1.37;1.10;;;;;;;;;;5093123;28;20695;-42
2022/04/18 10:42:36;;;;;;;4.07;1.30;;;;;;;;;;5092544;28;20214;-41
2022/04/18 10:45:12;;;;;;;4.23;1.43;;;;;;;;;;5120438;27;20222;-42
2022/04/18 10:48:10;;;;;;;2.85;1.50;;;;;;;;;;5090698;28;20647;-41
2022/04/18 10:50:49;;;;;;;2.80;1.20;;;;;;;;;;5090258;28;20219;-41
2022/04/18 10:53:22;;;;;;;1.85;1.02;;;;;;;;;;5094104;28;20248;-41
2022/04/18 10:55:52;;;;;;;4.53;1.63;;;;;;;;;;5094349;28;20268;-42
2022/04/18 10:58:30;;;;;;;1.90;1.13;;;;;;;;;;5094431;28;20241;-41
2022/04/18 11:00:59;;;;;;;2.40;1.23;;;;;;;;;;5094575;28;20226;-41
2022/04/18 11:03:38;;;;;;;2.47;1.38;;;;;;;;;;5094288;28;20618;-43
2022/04/18 11:06:15;;;;;;;1.80;1.20;;;;;;;;;;5094106;28;20288;-41
2022/04/18 11:08:58;;;;;;;2.87;1.20;;;;;;;;;;5094494;28;20346;-40
2022/04/18 11:11:34;;;;;;;3.10;1.20;;;;;;;;;;5081483;28;20688;-42
2022/04/18 11:14:02;;;;;;;6.00;1.40;;;;;;;;;;5073850;28;20226;-42
2022/04/18 11:16:42;;;;;;;1.77;1.30;;;;;;;;;;5073754;28;20624;-41
2022/04/18 11:19:15;;;;;;;18.23;11.43;;;;;;;;;;5072759;28;20230;-41
2022/04/18 11:21:56;;;;;;;2.57;2.13;;;;;;;;;;5073869;28;20227;-42
2022/04/18 11:24:37;;;;;;;3.13;1.30;;;;;;;;;;5072269;28;20309;-39
2022/04/18 11:27:14;;;;;;;2.30;1.23;;;;;;;;;;5073099;28;20254;-41
2022/04/18 11:29:54;;;;;;;1.43;1.07;;;;;;;;;;5075759;28;20231;-40
2022/04/18 11:32:24;;;;;;;1.63;1.20;;;;;;;;;;5083564;28;20223;-43
2022/04/18 11:34:54;;;;;;;1.70;1.10;;;;;;;;;;5088832;28;20234;-42
2022/04/18 11:37:29;;;;;;;1.47;1.20;;;;;;;;;;5090872;28;20608;-44
2022/04/18 11:39:59;;;;;;;3.30;1.15;;;;;;;;;;5090104;28;21013;-44
2022/04/18 11:42:29;;;;;;;1.52;1.10;;;;;;;;;;5086721;28;20234;-42
2022/04/18 11:44:59;;;;;;;2.77;1.80;;;;;;;;;;5084417;28;20222;-42
2022/04/18 11:47:29;;;;;;;2.55;1.55;;;;;;;;;;5093332;28;20914;-46
2022/04/18 11:50:01;;;;;;;1.90;1.20;;;;;;;;;;5096318;28;20271;-41
2022/04/18 11:52:34;;;;;;;1.50;1.17;;;;;;;;;;5082048;28;20214;-43
2022/04/18 11:55:17;;;;;;;2.60;1.40;;;;;;;;;;5076307;28;20284;-48
2022/04/18 11:57:46;;;;;;;2.63;1.10;;;;;;;;;;5077604;28;20223;-44
2022/04/18 12:00:14;;;;;;;2.47;1.23;;;;;;;;;;5086880;28;20276;-43
2022/04/18 12:08:18;;;;;;;2.05;1.40;;;;;;;;;;5091404;28;20216;-42
2022/04/18 12:10:46;;;;;;;1.98;1.30;;;;;;;;;;5088133;28;20559;-43
2022/04/18 12:13:14;;;;;;;2.15;1.50;;;;;;;;;;5090433;28;20683;-44
2022/04/18 12:15:42;;;;;;;2.13;1.23;;;;;;;;;;5085737;28;20230;-41
2022/04/18 12:18:13;;;;;;;2.17;1.20;;;;;;;;;;5082204;28;20809;-42
2022/04/18 12:20:43;;;;;;;2.73;1.10;;;;;;;;;;5088657;28;20275;-40
2022/04/18 12:23:21;;;;;;;3.10;1.48;;;;;;;;;;5090373;28;20245;-43
2022/04/18 12:25:50;;;;;;;3.00;1.10;;;;;;;;;;5090989;28;20233;-43
2022/04/18 12:28:23;;;;;;;2.08;1.20;;;;;;;;;;5083219;28;20230;-46
2022/04/18 12:30:51;;;;;;;3.72;1.90;;;;;;;;;;5079753;28;20233;-44
2022/04/18 12:33:22;;;;;;;1.73;1.27;;;;;;;;;;5078913;28;20230;-44
2022/04/18 12:35:51;;;;;;;2.72;1.30;;;;;;;;;;5080126;28;20564;-41
2022/04/18 12:38:20;;;;;;;1.80;1.05;;;;;;;;;;5084431;28;20218;-43
2022/04/18 12:40:55;;;;;;;2.08;1.00;;;;;;;;;;5083178;28;20297;-43
2022/04/18 12:43:28;;;;;;;3.58;1.30;;;;;;;;;;5078844;28;20219;-42
2022/04/18 12:45:59;;;;;;;2.75;1.33;;;;;;;;;;5088101;28;20223;-43
2022/04/18 12:48:30;;;;;;;2.92;1.15;;;;;;;;;;5085208;28;20230;-44
2022/04/18 12:51:00;;;;;;;6.97;1.27;;;;;;;;;;5091971;28;20238;-42
2022/04/18 12:53:47;;;;;;;4.43;1.50;;;;;;;;;;5090963;28;20295;-44
2022/04/18 12:56:25;;;;;;;1.63;1.08;;;;;;;;;;5091462;28;20227;-48
2022/04/18 12:59:06;;;;;;;1.92;1.02;;;;;;;;;;5084941;28;20287;-42
2022/04/18 13:01:34;;;;;;;5.60;2.25;;;;;;;;;;5090740;28;20685;-43
2022/04/18 13:04:04;;;;;;;3.15;1.40;;;;;;;;;;5085410;28;20562;-42
2022/04/18 13:06:32;;;;;;;1.52;1.20;;;;;;;;;;5080196;28;20234;-43
2022/04/18 13:09:04;;;;;;;2.50;1.60;;;;;;;;;;5091492;28;20229;-43
2022/04/18 13:12:00;;;;;;;2.72;1.52;;;;;;;;;;5087646;28;20222;-42
2022/04/18 13:14:28;;;;;;;1.80;1.20;;;;;;;;;;5091289;28;20227;-43
2022/04/18 13:17:09;;;;;;;3.65;1.52;;;;;;;;;;5095025;28;20238;-44
2022/04/18 13:19:37;;;;;;;4.88;1.85;;;;;;;;;;5093758;28;20652;-43
2022/04/18 13:22:05;;;;;;;3.38;1.60;;;;;;;;;;5094148;28;20227;-41
2022/04/18 13:24:33;;;;;;;2.88;1.17;;;;;;;;;;5094474;28;20607;-43
2022/04/18 13:27:00;;;;;;;3.08;1.67;;;;;;;;;;5095019;28;20747;-43
2022/04/18 13:29:27;;;;;;;2.90;1.50;;;;;;;;;;5094513;28;20680;-42
2022/04/18 13:31:54;;;;;;;2.50;1.50;;;;;;;;;;5095731;28;20226;-42
2022/04/18 13:34:22;;;;;;;2.85;1.63;;;;;;;;;;5095357;28;20605;-42
2022/04/18 13:36:49;;;;;;;2.30;1.48;;;;;;;;;;5095571;28;20683;-42
2022/04/18 13:39:16;;;;;;;3.50;1.77;;;;;;;;;;5095503;28;20680;-43
2022/04/18 13:41:44;;;;;;;3.33;1.60;;;;;;;;;;5095188;28;20230;-42
2022/04/18 13:44:11;;;;;;;2.60;1.40;;;;;;;;;;5095383;28;20558;-41
2022/04/18 13:46:39;;;;;;;1.60;1.10;;;;;;;;;;5094964;28;20226;-43
2022/04/18 13:49:07;;;;;;;3.00;1.83;;;;;;;;;;5082298;28;20666;-43
2022/04/18 13:51:34;;;;;;;3.05;1.50;;;;;;;;;;5080302;28;20224;-43
2022/04/18 13:54:02;;;;;;;2.23;1.60;;;;;;;;;;5077705;28;20227;-43
2022/04/18 13:56:30;;;;;;;3.53;1.63;;;;;;;;;;5086964;28;20237;-43
2022/04/18 13:58:58;;;;;;;4.00;1.70;;;;;;;;;;5076730;28;20239;-42
2022/04/18 14:01:26;;;;;;;2.77;1.40;;;;;;;;;;5092167;28;20223;-42
2022/04/18 14:03:55;;;;;;;3.70;1.80;;;;;;;;;;5093311;28;20313;-45
2022/04/18 14:06:26;;;;;;;2.77;1.80;;;;;;;;;;5091283;28;20276;-41
2022/04/18 14:08:55;;;;;;;2.83;1.60;;;;;;;;;;5091328;28;21785;-45
2022/04/18 14:11:23;;;;;;;2.83;1.67;;;;;;;;;;5090845;28;20250;-43
2022/04/18 14:13:50;;;;;;;1.97;1.53;;;;;;;;;;5091739;28;20530;-44
2022/04/18 14:21:49;;;;;;;5.17;1.63;;;;;;;;;;5082445;28;20645;-43
2022/04/18 14:24:17;;;;;;;4.57;2.33;;;;;;;;;;5091964;28;20223;-46
2022/04/18 14:26:44;;;;;;;11.73;2.73;;;;;;;;;;5085663;28;20219;-47
2022/04/18 14:29:11;;;;;;;2.30;1.47;;;;;;;;;;5086000;28;20305;-43
2022/04/18 14:31:39;;;;;;;2.00;1.50;;;;;;;;;;5091807;28;20226;-43
2022/04/18 14:34:06;;;;;;;3.20;1.90;;;;;;;;;;5093409;28;20215;-43
2022/04/18 14:36:33;;;;;;;5.83;1.83;;;;;;;;;;5092875;28;20242;-46
2022/04/18 14:39:01;;;;;;;2.50;1.70;;;;;;;;;;5090769;28;20218;-44
2022/04/18 14:41:28;;;;;;;4.93;1.93;;;;;;;;;;5089718;28;20306;-44
2022/04/18 14:43:56;;;;;;;3.00;2.17;;;;;;;;;;5092471;28;20313;-46
2022/04/18 14:46:23;;;;;;;1.80;1.43;;;;;;;;;;5092009;28;20276;-43
2022/04/18 14:48:54;;;;;;;3.33;1.70;;;;;;;;;;5091950;28;20219;-43
2022/04/18 14:51:24;;;;;;;5.37;2.27;;;;;;;;;;5086726;28;20218;-42
2022/04/18 14:53:52;;;;;;;5.90;1.73;;;;;;;;;;5091998;28;20299;-44
2022/04/18 14:56:19;;;;;;;4.13;2.20;;;;;;;;;;5092071;28;20771;-44
2022/04/18 14:58:46;;;;;;;4.87;1.83;;;;;;;;;;5092071;28;20229;-45
2022/04/18 15:01:14;;;;;;;7.90;2.40;;;;;;;;;;5082161;28;20227;-50
2022/04/18 15:03:43;;;;;;;5.13;2.20;;;;;;;;;;5077330;28;20552;-48
2022/04/18 15:06:10;;;;;;;2.50;1.47;;;;;;;;;;5081436;28;20538;-43
2022/04/18 15:08:37;;;;;;;1.63;1.43;;;;;;;;;;5087249;28;20564;-44
2022/04/18 15:11:04;;;;;;;3.10;1.77;;;;;;;;;;5088047;28;20218;-46
2022/04/18 15:13:35;;;;;;;4.10;1.60;;;;;;;;;;5086234;28;20260;-43
2022/04/18 15:16:05;;;;;;;3.40;1.60;;;;;;;;;;5085274;28;20725;-42
2022/04/18 15:18:32;;;;;;;4.40;2.50;;;;;;;;;;5092271;28;20229;-41
2022/04/18 15:20:59;;;;;;;3.53;2.10;;;;;;;;;;5092566;28;20534;-43
2022/04/18 15:23:26;;;;;;;4.73;2.13;;;;;;;;;;5093542;28;20233;-42
2022/04/18 15:25:54;;;;;;;4.10;1.67;;;;;;;;;;5093852;28;20261;-43
2022/04/18 15:28:21;;;;;;;2.47;2.27;;;;;;;;;;5093005;28;20220;-43
2022/04/18 15:33:34;;;;;;;5.97;3.10;;;;;;;;;;5094035;28;20877;-44
2022/04/18 15:36:01;;;;;;;4.07;2.20;;;;;;;;;;5094036;28;20218;-44
2022/04/18 15:38:29;;;;;;;8.00;2.53;;;;;;;;;;5093272;28;20241;-44
2022/04/18 15:40:56;;;;;;;4.53;2.17;;;;;;;;;;5085844;28;20223;-44